createdAt,value
2022-12-11T00:05:08.061Z,0
2022-12-11T00:11:30.791Z,0
2022-12-11T00:17:50.784Z,0
2022-12-11T00:24:13.792Z,0
2022-12-11T00:30:33.821Z,0
2022-12-11T00:36:56.776Z,0
2022-12-11T00:43:16.776Z,0
2022-12-11T00:49:40.604Z,0
2022-12-11T00:55:59.908Z,0
2022-12-11T01:02:22.803Z,0
2022-12-11T01:08:42.840Z,0
2022-12-11T01:15:05.895Z,0
2022-12-11T01:21:25.787Z,0
2022-12-11T01:27:48.745Z,0
2022-12-11T01:34:08.889Z,0
2022-12-11T01:40:31.916Z,0
2022-12-11T01:46:51.904Z,0
2022-12-11T01:53:14.842Z,0
2022-12-11T01:59:34.791Z,0
2022-12-11T02:05:57.870Z,0
2022-12-11T02:12:17.825Z,0
2022-12-11T02:18:40.858Z,0
2022-12-11T02:25:00.926Z,0
2022-12-11T02:31:23.819Z,0
2022-12-11T02:37:43.760Z,0
2022-12-11T02:44:06.896Z,0
2022-12-11T02:50:26.840Z,0
2022-12-11T02:56:49.737Z,0
2022-12-11T03:03:09.756Z,0
2022-12-11T03:09:32.861Z,0
2022-12-11T03:15:52.908Z,0
2022-12-11T03:22:15.837Z,0
2022-12-11T03:28:35.837Z,0
2022-12-11T03:34:58.874Z,0
2022-12-11T03:41:18.971Z,0
2022-12-11T03:47:41.865Z,0
2022-12-11T03:54:01.947Z,0
2022-12-11T04:00:24.782Z,0
2022-12-11T04:16:31.615Z,0
2022-12-11T04:22:51.752Z,0
2022-12-11T04:29:14.744Z,0
2022-12-11T04:35:34.811Z,0
2022-12-11T04:41:57.745Z,0
2022-12-11T04:48:17.787Z,0
2022-12-11T04:54:40.863Z,0
2022-12-11T05:01:00.740Z,0
2022-12-11T05:07:23.745Z,0
2022-12-11T05:13:43.839Z,0
2022-12-11T05:20:06.738Z,0
2022-12-11T05:26:26.784Z,0
2022-12-11T05:32:49.833Z,0
2022-12-11T05:39:09.726Z,0
2022-12-11T05:45:32.768Z,0
2022-12-11T05:51:52.770Z,0
2022-12-11T05:58:15.827Z,0
2022-12-11T06:04:35.854Z,0
2022-12-11T06:10:58.889Z,0
2022-12-11T06:17:18.796Z,0
2022-12-11T06:23:41.724Z,0
2022-12-11T06:30:01.763Z,0
2022-12-11T06:36:24.792Z,0
2022-12-11T06:42:44.759Z,0
2022-12-11T06:49:07.789Z,0
2022-12-11T06:55:27.742Z,0
2022-12-11T07:01:50.836Z,0
2022-12-11T07:08:10.922Z,0
2022-12-11T07:14:33.900Z,0
2022-12-11T07:20:53.849Z,0
2022-12-11T07:27:16.829Z,0
2022-12-11T07:33:36.743Z,0
2022-12-11T07:39:59.842Z,0
2022-12-11T07:46:19.858Z,0
2022-12-11T07:52:42.820Z,0
2022-12-11T07:59:02.815Z,0
2022-12-11T08:05:26.125Z,0
2022-12-11T08:11:45.853Z,0
2022-12-11T08:18:08.763Z,0
2022-12-11T08:24:28.775Z,0
2022-12-11T08:30:51.901Z,0
2022-12-11T08:37:11.807Z,0
2022-12-11T08:43:34.822Z,5.62
2022-12-11T08:49:54.725Z,5.62
2022-12-11T08:56:17.779Z,5.62
2022-12-11T09:02:38.002Z,5.62
2022-12-11T09:26:20.753Z,11.25
2022-12-11T09:32:43.731Z,11.25
2022-12-11T09:39:03.883Z,11.25
2022-12-11T09:45:26.868Z,11.25
2022-12-11T09:51:46.960Z,16.88
2022-12-11T09:58:09.764Z,11.25
2022-12-11T10:04:29.776Z,11.25
2022-12-11T10:10:52.815Z,16.88
2022-12-11T10:17:12.800Z,16.88
2022-12-11T10:23:35.811Z,16.88
2022-12-11T10:29:55.843Z,22.5
2022-12-11T10:36:18.789Z,22.5
2022-12-11T10:42:44.154Z,28.12
2022-12-11T10:49:01.803Z,28.12
2022-12-11T10:55:21.773Z,33.75
2022-12-11T11:01:44.810Z,28.12
2022-12-11T11:08:04.783Z,28.12
2022-12-11T11:14:27.798Z,22.5
2022-12-11T11:20:47.771Z,22.5
2022-12-11T11:27:13.440Z,22.5
2022-12-11T11:33:30.734Z,22.5
2022-12-11T11:39:53.874Z,22.5
2022-12-11T11:46:13.920Z,22.5
2022-12-11T11:52:36.734Z,28.12
2022-12-11T11:58:56.896Z,50.62
2022-12-11T12:05:19.901Z,56.25
2022-12-11T12:11:39.745Z,39.38
2022-12-11T12:18:02.886Z,33.75
2022-12-11T12:24:22.757Z,33.75
2022-12-11T12:30:45.966Z,28.12
2022-12-11T12:37:06.031Z,22.5
2022-12-11T12:43:28.837Z,11.25
2022-12-11T12:49:48.857Z,16.88
2022-12-11T12:56:11.774Z,11.25
2022-12-11T13:02:31.884Z,16.88
2022-12-11T13:08:54.765Z,16.88
2022-12-11T13:15:14.892Z,22.5
2022-12-11T13:21:37.857Z,50.62
2022-12-11T13:27:57.731Z,28.12
2022-12-11T13:34:20.932Z,22.5
2022-12-11T13:40:40.827Z,28.12
2022-12-11T13:47:03.833Z,28.12
2022-12-11T13:53:23.807Z,28.12
2022-12-11T13:59:46.807Z,22.5
2022-12-11T14:06:06.822Z,16.88
2022-12-11T14:12:29.837Z,11.25
2022-12-11T14:28:37.200Z,16.88
2022-12-11T14:34:56.784Z,5.62
2022-12-11T14:41:19.805Z,5.62
2022-12-11T14:47:39.786Z,5.62
2022-12-11T14:54:02.745Z,0
2022-12-11T15:00:22.928Z,0
2022-12-11T15:06:45.787Z,0
2022-12-11T15:13:05.760Z,0
2022-12-11T15:19:28.884Z,0
2022-12-11T15:25:48.755Z,0
2022-12-11T15:32:11.775Z,0
2022-12-11T15:38:31.748Z,0
2022-12-11T15:44:54.912Z,0
2022-12-11T15:51:14.843Z,0
2022-12-11T15:57:38.452Z,0
2022-12-11T16:04:03.281Z,0
2022-12-11T16:10:21.786Z,0
2022-12-11T16:16:42.137Z,0
2022-12-11T16:23:04.820Z,0
2022-12-11T16:29:24.769Z,0
2022-12-11T16:35:48.078Z,0
2022-12-11T16:42:07.887Z,0
2022-12-11T16:48:31.818Z,0
2022-12-11T16:54:51.865Z,0
2022-12-11T17:01:14.811Z,0
2022-12-11T17:07:34.798Z,0
2022-12-11T17:13:57.773Z,0
2022-12-11T17:20:17.932Z,0
2022-12-11T17:26:40.848Z,0
2022-12-11T17:33:01.880Z,0
2022-12-11T17:39:24.991Z,0
2022-12-11T17:45:44.814Z,0
2022-12-11T17:52:07.755Z,0
2022-12-11T17:58:27.954Z,0
2022-12-11T18:04:50.725Z,0
2022-12-11T18:11:10.773Z,0
2022-12-11T18:17:33.805Z,0
2022-12-11T18:23:53.821Z,0
2022-12-11T18:30:17.009Z,0
2022-12-11T18:36:36.765Z,0
2022-12-11T18:42:59.812Z,0
2022-12-11T18:49:19.734Z,0
2022-12-11T18:55:42.794Z,0
2022-12-11T19:02:02.776Z,0
2022-12-11T19:08:25.876Z,0
2022-12-11T19:32:15.335Z,0
2022-12-11T19:38:34.727Z,0
2022-12-11T19:44:57.774Z,0
2022-12-11T19:51:17.797Z,0
2022-12-11T19:57:40.980Z,0
2022-12-11T20:04:00.952Z,0
2022-12-11T20:10:23.864Z,0
2022-12-11T20:17:09.656Z,0
2022-12-11T20:23:06.739Z,0
2022-12-11T20:29:26.827Z,0
2022-12-11T20:35:49.813Z,0
2022-12-11T20:42:09.770Z,0
2022-12-11T20:48:32.767Z,0
2022-12-11T20:54:52.831Z,0
2022-12-11T21:01:15.827Z,0
2022-12-11T21:07:35.936Z,0
2022-12-11T21:13:58.764Z,0
2022-12-11T21:20:18.745Z,0
2022-12-11T21:26:47.802Z,0
2022-12-11T21:33:01.828Z,0
2022-12-11T21:39:24.775Z,0
2022-12-11T21:46:01.643Z,0
2022-12-11T21:52:07.749Z,0
2022-12-11T21:58:27.895Z,0
2022-12-11T22:04:50.966Z,0
2022-12-11T22:11:10.779Z,0
2022-12-11T22:17:33.855Z,0
2022-12-11T22:23:53.849Z,0
2022-12-11T22:30:16.759Z,0
2022-12-11T22:36:36.748Z,0
2022-12-11T22:42:59.795Z,0
2022-12-11T22:49:19.773Z,0
2022-12-11T22:55:42.758Z,0
2022-12-11T23:19:56.778Z,0
2022-12-11T23:26:16.725Z,0
2022-12-11T23:32:39.889Z,0
2022-12-11T23:38:59.907Z,0
2022-12-11T23:45:22.905Z,0
2022-12-11T23:51:42.739Z,0
2022-12-11T23:58:05.813Z,0
